KCPT

Details ICAO KCPT
Name CLEBURNE MUNI
Region United States
Timezone America/Chicago (UTC-5.0)
Plans Departing 5
Arriving 7
Stats Elevation 854 ft / 260 m (AMSL)
Location 32.353752° -97.433743°
Runways 1
Magnetic Variation 3.624° E
Sunrise 2018-05-23 11:28:26 UTC / 2018-05-23 06:28:26 Local
Sunset 2018-05-24 01:27:26 UTC / 2018-05-23 20:27:26 Local
Advertisement - Login to hide

Runways

ID Width Length Bearing (true) Bearing (mag) Surface Threshold Offset Overrun Length
15 100 ft / 30 m 5,714 ft / 1,742 m 159.30° 155.68° Asphalt 186 ft / 57 m 0 ft / 0 m
33 100 ft / 30 m 5,714 ft / 1,742 m 339.30° 335.68° Asphalt 0 ft / 0 m 0 ft / 0 m

Map

Weather


0- 5 10 15 20 25 30 35+ Temperature / ° C

Clouds and Precipitation
Forecast for 2018-05-23 18:00 UTC. Updated 2 hours ago

Ground ~20,000 ft ~40,000 ft Winds

METAR

KCPT 231855Z AUTO 12010KT 10SM SCT039 29/20 A3007 RMK AO2

TAF

Not found

Frequencies

Recorded 119.52 MHz AWOS 3
Approach 135.97 MHz RGNL APP/DEP
Unicom 122.80 MHz CTAF/UNICOM
Warning: Do not use this data for real-world aviation or navigation. No guarantee of current accuracy is given.